Pace, Mississippi
Current Conditions -  °F | °C
As of 3:35 AM on Thursday 18 Dec 2014 (Local Time) from KRNV Reporting Station
Light Rain Light Rain  
Wind Chill: 36°   Ceiling: 5500
Heat Index: 40°   Visibility: 10mi
Dew Point: 39°   Wind: 6mph
Humidity: 95%   Direction: 60°ENE
Pressure: 30.24"   Gusts: NA
Location:  33.79°N, 90.86°W
Report Text: KRNV 180935Z AUTO 06005KT 10SM -RA OVC055 05/04 A3024 RMK AO2 T00470040
Loading
Personal Weather Stations






























Interactive Weather Map New forecast layout! Learn more

10-Day Weather Forecast

Advertisements
Track Severe Weather on mobile